createdAt,value
2016-10-12T00:00:24.956Z,9.12
2016-10-12T00:01:25.041Z,9.16
2016-10-12T00:02:25.004Z,9.17
2016-10-12T00:03:25.107Z,9.21
2016-10-12T00:04:25.096Z,9.04
2016-10-12T00:05:25.025Z,9.11
2016-10-12T00:06:24.961Z,9.05
2016-10-12T00:07:25.107Z,9.16
2016-10-12T00:08:24.997Z,9.09
2016-10-12T00:09:25.010Z,9.09
2016-10-12T00:10:25.116Z,9.09
2016-10-12T00:11:25.046Z,9.11
2016-10-12T00:12:25.071Z,9.05
2016-10-12T00:13:25.148Z,9.08
2016-10-12T00:14:25.113Z,9.11
2016-10-12T00:15:25.118Z,9.03
2016-10-12T00:16:25.099Z,9.08
2016-10-12T00:17:25.118Z,9.09
2016-10-12T00:18:25.092Z,9.09
2016-10-12T00:19:25.120Z,9.03
2016-10-12T00:20:25.084Z,8.97
2016-10-12T00:21:25.101Z,8.94
2016-10-12T00:22:25.151Z,8.95
2016-10-12T00:23:25.140Z,9.01
2016-10-12T00:24:25.122Z,9.01
2016-10-12T00:25:25.075Z,9.01
2016-10-12T00:26:25.115Z,9.03
2016-10-12T00:27:25.157Z,8.97
2016-10-12T00:28:25.036Z,8.97
2016-10-12T00:29:25.335Z,8.87
2016-10-12T00:30:25.128Z,9.04
2016-10-12T00:31:25.128Z,9.04
2016-10-12T00:32:25.091Z,9.05
2016-10-12T00:33:25.138Z,8.94
2016-10-12T00:34:25.164Z,8.95
2016-10-12T00:35:25.085Z,9.04
2016-10-12T00:36:25.116Z,8.94
2016-10-12T00:37:25.104Z,9
2016-10-12T00:38:25.033Z,8.95
2016-10-12T00:39:25.081Z,8.97
2016-10-12T00:40:25.065Z,8.95
2016-10-12T00:41:25.124Z,9.01
2016-10-12T00:42:25.166Z,8.98
2016-10-12T00:43:25.152Z,8.98
2016-10-12T00:44:25.128Z,8.94
2016-10-12T00:45:25.336Z,9
2016-10-12T00:46:25.183Z,9.05
2016-10-12T00:47:25.171Z,8.92
2016-10-12T00:48:25.057Z,9.08
2016-10-12T00:49:25.181Z,8.94
2016-10-12T00:50:25.260Z,8.95
2016-10-12T00:51:25.181Z,9
2016-10-12T00:52:25.153Z,8.97
2016-10-12T00:53:25.149Z,8.95
2016-10-12T00:54:25.168Z,8.98
2016-10-12T00:55:25.084Z,8.98
2016-10-12T00:56:25.209Z,8.97
2016-10-12T00:57:25.151Z,8.95
2016-10-12T00:58:25.263Z,8.92
2016-10-12T00:59:25.252Z,8.94
2016-10-12T01:00:25.244Z,8.89
2016-10-12T01:01:25.376Z,8.95
2016-10-12T01:02:25.253Z,9.01
2016-10-12T01:03:25.136Z,8.94
2016-10-12T01:04:25.186Z,9.04
2016-10-12T01:05:25.239Z,8.98
2016-10-12T01:06:25.238Z,9.04
2016-10-12T01:07:25.285Z,8.97
2016-10-12T01:08:25.230Z,9.09
2016-10-12T01:09:25.233Z,8.9
2016-10-12T01:10:25.212Z,9.08
2016-10-12T01:11:25.412Z,8.95
2016-10-12T01:12:25.191Z,9
2016-10-12T01:13:25.221Z,9.03
2016-10-12T01:14:25.265Z,9.05
2016-10-12T01:15:25.232Z,8.98
2016-10-12T01:16:25.197Z,8.98
2016-10-12T01:17:25.394Z,8.98
2016-10-12T01:18:25.236Z,9.01
2016-10-12T01:19:25.266Z,8.95
2016-10-12T01:20:25.293Z,8.98
2016-10-12T01:21:25.254Z,8.94
2016-10-12T01:22:25.269Z,8.98
2016-10-12T01:23:25.316Z,8.94
2016-10-12T01:24:25.245Z,8.9
2016-10-12T01:25:25.250Z,8.95
2016-10-12T01:26:25.196Z,8.98
2016-10-12T01:27:25.268Z,8.89
2016-10-12T01:28:25.348Z,8.98
2016-10-12T01:29:25.223Z,9.01
2016-10-12T01:30:25.333Z,8.94
2016-10-12T01:31:25.268Z,8.92
2016-10-12T01:32:25.258Z,8.94
2016-10-12T01:33:25.761Z,8.97
2016-10-12T01:34:25.311Z,9.01
2016-10-12T01:35:25.329Z,9.01
2016-10-12T01:36:25.465Z,9.05
2016-10-12T01:37:25.281Z,8.97
2016-10-12T01:38:25.519Z,8.92
2016-10-12T01:39:25.372Z,8.92
2016-10-12T01:40:25.339Z,8.94
2016-10-12T01:41:25.329Z,8.94
2016-10-12T01:42:25.363Z,9
2016-10-12T01:43:25.321Z,8.94
2016-10-12T01:44:25.367Z,8.97
2016-10-12T01:45:25.339Z,8.98
2016-10-12T01:46:25.279Z,8.98
2016-10-12T01:47:25.310Z,8.92
2016-10-12T01:48:25.358Z,9.03
2016-10-12T01:49:25.467Z,9.03
2016-10-12T01:50:25.309Z,8.98
2016-10-12T01:51:25.377Z,9
2016-10-12T01:52:25.333Z,8.9
2016-10-12T01:53:25.400Z,8.97
2016-10-12T01:54:25.410Z,8.94
2016-10-12T01:55:25.266Z,8.94
2016-10-12T01:56:25.403Z,8.92
2016-10-12T01:57:25.416Z,8.9
2016-10-12T01:58:25.260Z,8.94
2016-10-12T01:59:25.325Z,8.94
2016-10-12T02:00:25.325Z,8.97
2016-10-12T02:01:25.406Z,8.89
2016-10-12T02:02:25.390Z,8.94
2016-10-12T02:03:25.367Z,8.89
2016-10-12T02:04:25.285Z,9
2016-10-12T02:05:25.519Z,8.95
2016-10-12T02:06:25.282Z,8.86
2016-10-12T02:07:25.402Z,8.9
2016-10-12T02:08:25.417Z,8.87
2016-10-12T02:09:25.440Z,8.9
2016-10-12T02:10:25.470Z,8.87
2016-10-12T02:11:25.390Z,8.92
2016-10-12T02:12:25.458Z,8.87
2016-10-12T02:13:25.388Z,8.79
2016-10-12T02:14:25.391Z,8.79
2016-10-12T02:15:25.418Z,8.71
2016-10-12T02:16:25.383Z,8.72
2016-10-12T02:17:25.426Z,8.79
2016-10-12T02:18:25.433Z,8.82
2016-10-12T02:19:25.406Z,8.77
2016-10-12T02:20:25.402Z,8.77
2016-10-12T02:21:25.502Z,8.68
2016-10-12T02:22:25.338Z,8.77
2016-10-12T02:23:25.411Z,8.72
2016-10-12T02:24:25.434Z,8.85
2016-10-12T02:25:25.488Z,8.72
2016-10-12T02:26:25.486Z,8.71
2016-10-12T02:27:25.397Z,8.68
2016-10-12T02:28:25.427Z,8.69
2016-10-12T02:29:25.387Z,8.64
2016-10-12T02:30:25.508Z,8.68
2016-10-12T02:31:25.497Z,8.69
2016-10-12T02:32:25.502Z,8.74
2016-10-12T02:33:25.523Z,8.77
2016-10-12T02:34:25.519Z,8.83
2016-10-12T02:35:25.517Z,8.76
2016-10-12T02:36:25.415Z,8.77
2016-10-12T02:37:25.538Z,8.72
2016-10-12T02:38:25.473Z,8.76
2016-10-12T02:39:25.434Z,8.67
2016-10-12T02:40:25.458Z,8.62
2016-10-12T02:41:25.460Z,8.67
2016-10-12T02:42:25.444Z,8.65
2016-10-12T02:43:25.432Z,8.69
2016-10-12T02:44:25.527Z,8.67
2016-10-12T02:45:25.546Z,8.65
2016-10-12T02:46:25.513Z,8.68
2016-10-12T02:47:25.552Z,8.76
2016-10-12T02:48:25.519Z,8.77
2016-10-12T02:49:25.557Z,8.74
2016-10-12T02:50:25.494Z,8.8
2016-10-12T02:51:25.513Z,8.71
2016-10-12T02:52:25.408Z,8.77
2016-10-12T02:53:25.556Z,8.77
2016-10-12T02:54:25.495Z,8.68
2016-10-12T02:55:25.574Z,8.72
2016-10-12T02:56:25.511Z,8.71
2016-10-12T02:57:25.493Z,8.71
2016-10-12T02:58:25.564Z,8.69
2016-10-12T02:59:25.546Z,8.68
2016-10-12T03:00:25.507Z,8.68
2016-10-12T03:01:25.558Z,8.72
2016-10-12T03:02:25.583Z,8.72
2016-10-12T03:03:25.585Z,8.64
2016-10-12T03:04:25.590Z,8.69
2016-10-12T03:05:25.488Z,8.67
2016-10-12T03:06:25.553Z,8.67
2016-10-12T03:07:25.599Z,8.6
2016-10-12T03:08:25.549Z,8.54
2016-10-12T03:09:25.732Z,8.61
2016-10-12T03:10:25.616Z,8.58
2016-10-12T03:11:25.459Z,8.53
2016-10-12T03:12:25.583Z,8.58
2016-10-12T03:13:25.621Z,8.49
2016-10-12T03:14:25.601Z,8.58
2016-10-12T03:15:25.614Z,8.57
2016-10-12T03:16:25.547Z,8.44
2016-10-12T03:17:25.507Z,8.44
2016-10-12T03:18:25.508Z,8.52
2016-10-12T03:19:25.586Z,8.43
2016-10-12T03:20:25.643Z,8.57
2016-10-12T03:21:25.606Z,8.4
2016-10-12T03:22:25.649Z,8.43
2016-10-12T03:23:25.582Z,8.44
2016-10-12T03:24:25.636Z,8.43
2016-10-12T03:25:25.768Z,8.4
2016-10-12T03:26:25.514Z,8.4
2016-10-12T03:27:25.664Z,8.46
2016-10-12T03:28:25.625Z,8.43
2016-10-12T03:29:25.552Z,8.44
2016-10-12T03:30:25.611Z,8.4
2016-10-12T03:31:25.625Z,8.35
2016-10-12T03:32:25.552Z,8.4
2016-10-12T03:33:25.688Z,8.4
2016-10-12T03:34:25.595Z,8.4
2016-10-12T03:35:25.686Z,8.39
2016-10-12T03:36:25.683Z,8.36
2016-10-12T03:37:25.643Z,8.42
2016-10-12T03:38:25.682Z,8.39
2016-10-12T03:39:25.634Z,8.39
2016-10-12T03:40:25.622Z,8.34
2016-10-12T03:41:25.733Z,8.39
2016-10-12T03:42:25.707Z,8.35
2016-10-12T03:43:25.626Z,8.36
2016-10-12T03:44:25.678Z,8.43
2016-10-12T03:45:25.621Z,8.39
2016-10-12T03:46:25.674Z,8.39
2016-10-12T03:47:25.557Z,8.46
2016-10-12T03:48:25.717Z,8.39
2016-10-12T03:49:25.598Z,8.34
2016-10-12T03:50:25.579Z,8.4
2016-10-12T03:51:25.595Z,8.52
2016-10-12T03:52:25.698Z,8.4
2016-10-12T03:53:25.689Z,8.36
2016-10-12T03:54:25.729Z,8.39
2016-10-12T03:55:25.716Z,8.36
2016-10-12T03:56:25.733Z,8.34
2016-10-12T03:57:25.789Z,8.35
2016-10-12T03:58:25.698Z,8.26
2016-10-12T03:59:25.731Z,8.25
2016-10-12T04:00:25.706Z,8.24
2016-10-12T04:01:25.681Z,8.36
2016-10-12T04:02:25.660Z,8.39
2016-10-12T04:03:25.720Z,8.36
2016-10-12T04:04:25.687Z,8.35
2016-10-12T04:05:25.715Z,8.24
2016-10-12T04:06:25.720Z,8.28
2016-10-12T04:07:25.763Z,8.36
2016-10-12T04:08:25.768Z,8.31
2016-10-12T04:09:25.618Z,8.35
2016-10-12T04:10:25.734Z,8.36
2016-10-12T04:11:25.662Z,8.31
2016-10-12T04:12:25.750Z,8.21
2016-10-12T04:13:25.898Z,8.31
2016-10-12T04:14:25.659Z,8.31
2016-10-12T04:15:25.734Z,8.4
2016-10-12T04:16:25.793Z,8.34
2016-10-12T04:17:25.756Z,8.31
2016-10-12T04:18:25.748Z,8.28
2016-10-12T04:19:25.733Z,8.28
2016-10-12T04:20:25.730Z,8.26
2016-10-12T04:21:25.722Z,8.24
2016-10-12T04:22:25.687Z,8.31
2016-10-12T04:23:25.728Z,8.43
2016-10-12T04:24:25.824Z,8.34
2016-10-12T04:25:25.731Z,8.28
2016-10-12T04:26:25.796Z,8.24
2016-10-12T04:27:25.824Z,8.26
2016-10-12T04:28:25.820Z,8.21
2016-10-12T04:29:25.815Z,8.26
2016-10-12T04:30:25.741Z,8.21
2016-10-12T04:31:25.760Z,8.21
2016-10-12T04:32:25.837Z,8.25
2016-10-12T04:33:25.796Z,8.21
2016-10-12T04:34:25.868Z,8.25
2016-10-12T04:35:25.759Z,8.22
2016-10-12T04:36:25.762Z,8.22
2016-10-12T04:37:25.771Z,8.24
2016-10-12T04:38:25.779Z,8.19
2016-10-12T04:39:25.789Z,8.19
2016-10-12T04:40:25.697Z,8.24
2016-10-12T04:41:25.741Z,8.13
2016-10-12T04:42:25.844Z,8.24
2016-10-12T04:43:25.791Z,8.14
2016-10-12T04:44:25.732Z,8.21
2016-10-12T04:45:25.961Z,8.17
2016-10-12T04:46:25.823Z,8.16
2016-10-12T04:47:25.822Z,8.25
2016-10-12T04:48:25.758Z,8.25
2016-10-12T04:49:25.832Z,8.21
2016-10-12T04:50:25.785Z,8.17
2016-10-12T04:51:25.803Z,8.21
2016-10-12T04:52:25.809Z,8.28
2016-10-12T04:53:25.892Z,8.11
2016-10-12T04:54:25.776Z,8.13
2016-10-12T04:55:25.879Z,8.13
2016-10-12T04:56:25.852Z,8.11
2016-10-12T04:57:25.897Z,8.22
2016-10-12T04:58:25.868Z,8.19
2016-10-12T04:59:25.752Z,8.13
2016-10-12T05:00:25.907Z,8.11
2016-10-12T05:01:26.069Z,8.19
2016-10-12T05:02:25.912Z,8.24
2016-10-12T05:03:25.848Z,8.09
2016-10-12T05:04:25.870Z,8.09
2016-10-12T05:05:25.772Z,8.04
2016-10-12T05:06:26.196Z,8.16
2016-10-12T05:07:25.902Z,8.17
2016-10-12T05:08:25.931Z,8.06
2016-10-12T05:09:25.931Z,8.22
2016-10-12T05:10:25.939Z,8.07
2016-10-12T05:11:25.861Z,8.09
2016-10-12T05:12:25.878Z,8.07
2016-10-12T05:13:25.822Z,8.03
2016-10-12T05:14:25.900Z,8.16
2016-10-12T05:15:25.902Z,7.95
2016-10-12T05:16:25.803Z,8.06
2016-10-12T05:17:26.061Z,8.01
2016-10-12T05:18:25.854Z,7.98
2016-10-12T05:19:25.877Z,7.95
2016-10-12T05:20:25.962Z,8.04
2016-10-12T05:21:25.941Z,7.96
2016-10-12T05:22:25.921Z,8.01
2016-10-12T05:23:25.856Z,7.98
2016-10-12T05:24:25.937Z,7.93
2016-10-12T05:25:25.974Z,7.96
2016-10-12T05:26:25.856Z,7.89
2016-10-12T05:27:25.917Z,7.92
2016-10-12T05:28:25.987Z,7.92
2016-10-12T05:29:25.881Z,7.95
2016-10-12T05:30:25.885Z,7.99
2016-10-12T05:31:26.010Z,7.96
2016-10-12T05:32:25.995Z,7.89
2016-10-12T05:33:26.354Z,7.83
2016-10-12T05:34:25.999Z,7.92
2016-10-12T05:35:26.004Z,7.95
2016-10-12T05:36:25.983Z,7.96
2016-10-12T05:37:26.174Z,8.01
2016-10-12T05:38:25.998Z,7.91
2016-10-12T05:39:25.990Z,7.92
2016-10-12T05:40:25.971Z,7.88
2016-10-12T05:41:25.969Z,7.96
2016-10-12T05:42:25.912Z,7.91
2016-10-12T05:43:25.991Z,7.86
2016-10-12T05:44:25.989Z,7.96
2016-10-12T05:45:26.051Z,8.03
2016-10-12T05:46:25.969Z,8.01
2016-10-12T05:47:26.006Z,7.98
2016-10-12T05:48:26.013Z,7.91
2016-10-12T05:49:26.130Z,8.01
2016-10-12T05:50:25.931Z,7.91
2016-10-12T05:51:25.939Z,7.99
2016-10-12T05:52:25.978Z,7.91
2016-10-12T05:53:26.055Z,7.91
2016-10-12T05:54:26.040Z,7.96
2016-10-12T05:55:25.959Z,7.99
2016-10-12T05:56:26.043Z,7.91
2016-10-12T05:57:26.008Z,7.88
2016-10-12T05:58:26.083Z,7.91
2016-10-12T05:59:30.474Z,7.91
2016-10-12T06:00:26.844Z,7.89
2016-10-12T06:01:27.140Z,7.95
2016-10-12T06:02:27.816Z,7.92
2016-10-12T06:03:27.454Z,7.98
2016-10-12T06:04:26.043Z,7.96
2016-10-12T06:05:26.197Z,7.92
2016-10-12T06:06:26.017Z,7.99
2016-10-12T06:07:26.043Z,8.01
2016-10-12T06:08:26.093Z,8.01
2016-10-12T06:09:26.034Z,7.92
2016-10-12T06:10:26.486Z,7.98
2016-10-12T06:11:26.111Z,7.98
2016-10-12T06:12:26.435Z,8.06
2016-10-12T06:13:26.151Z,8.11
2016-10-12T06:14:26.010Z,8.03
2016-10-12T06:15:26.061Z,8.01
2016-10-12T06:16:26.002Z,7.95
2016-10-12T06:17:26.078Z,8.04
2016-10-12T06:18:26.122Z,8.03
2016-10-12T06:19:26.129Z,7.95
2016-10-12T06:20:26.091Z,7.98
2016-10-12T06:21:27.201Z,7.92
2016-10-12T06:22:26.011Z,8.01
2016-10-12T06:23:27.324Z,8.07
2016-10-12T06:24:26.130Z,8.13
2016-10-12T06:25:26.150Z,8.1
2016-10-12T06:26:26.145Z,8.11
2016-10-12T06:27:26.051Z,8.1
2016-10-12T06:28:26.081Z,8.06
2016-10-12T06:29:25.998Z,8.04
2016-10-12T06:30:27.050Z,8.11
2016-10-12T06:31:27.028Z,8.06
2016-10-12T06:32:26.130Z,8.03
2016-10-12T06:33:26.133Z,7.93
2016-10-12T06:34:26.134Z,7.91
2016-10-12T06:35:26.284Z,7.99
2016-10-12T06:36:26.030Z,7.93
2016-10-12T06:37:26.099Z,8.01
2016-10-12T06:38:26.116Z,7.93
2016-10-12T06:39:26.204Z,8.11
2016-10-12T06:40:26.203Z,8.09
2016-10-12T06:41:27.472Z,7.95
2016-10-12T06:42:26.244Z,8.03
2016-10-12T06:43:26.192Z,7.96
2016-10-12T06:44:26.087Z,8.01
2016-10-12T06:45:26.382Z,8.03
2016-10-12T06:46:26.122Z,8.01
2016-10-12T06:47:27.048Z,8.1
2016-10-12T06:48:26.202Z,8.16
2016-10-12T06:49:28.244Z,8.1
2016-10-12T06:50:26.168Z,8.11
2016-10-12T06:51:26.120Z,8.22
2016-10-12T06:52:26.415Z,8.09
2016-10-12T06:53:26.182Z,8.06
2016-10-12T06:54:26.212Z,8.06
2016-10-12T06:55:26.260Z,8.17
2016-10-12T06:56:26.314Z,8.1
2016-10-12T06:57:26.244Z,8.24
2016-10-12T06:58:26.191Z,8.1
2016-10-12T06:59:26.268Z,8.07
2016-10-12T07:00:26.177Z,8.16
2016-10-12T07:01:26.279Z,8.17
2016-10-12T07:02:26.190Z,8.09
2016-10-12T07:03:26.567Z,8.25
2016-10-12T07:04:26.214Z,8.09
2016-10-12T07:05:26.163Z,8.21
2016-10-12T07:06:26.154Z,8.09
2016-10-12T07:07:26.252Z,8.16
2016-10-12T07:08:26.836Z,8.06
2016-10-12T07:09:26.270Z,8.06
2016-10-12T07:10:26.333Z,8.06
2016-10-12T07:11:26.298Z,8.07
2016-10-12T07:12:26.248Z,8.06
2016-10-12T07:13:26.303Z,8.17
2016-10-12T07:14:31.357Z,8.04
2016-10-12T07:15:26.335Z,8.14
2016-10-12T07:16:27.910Z,8.09
2016-10-12T07:17:29.273Z,8.24
2016-10-12T07:18:26.769Z,8.24
2016-10-12T07:19:27.028Z,8.19
2016-10-12T07:20:26.314Z,8.11
2016-10-12T07:21:27.026Z,8.06
2016-10-12T07:22:26.254Z,8.11
2016-10-12T07:23:26.294Z,8.24
2016-10-12T07:24:29.417Z,8.14
2016-10-12T07:25:26.242Z,8.11
2016-10-12T07:26:26.341Z,8.31
2016-10-12T07:27:29.499Z,8.29
2016-10-12T07:28:30.347Z,8.19
2016-10-12T07:29:26.352Z,8.28
2016-10-12T07:30:26.372Z,8.26
2016-10-12T07:31:26.302Z,8.31
2016-10-12T07:32:26.251Z,8.25
2016-10-12T07:33:26.274Z,8.28
2016-10-12T07:34:26.235Z,8.31
2016-10-12T07:35:26.432Z,8.34
2016-10-12T07:36:26.321Z,8.35
2016-10-12T07:37:26.316Z,8.34
2016-10-12T07:38:26.380Z,8.35
2016-10-12T07:39:28.075Z,8.36
2016-10-12T07:40:26.419Z,8.47
2016-10-12T07:41:26.664Z,8.4
2016-10-12T07:42:26.379Z,8.5
2016-10-12T07:43:26.381Z,8.54
2016-10-12T07:44:27.722Z,8.68
2016-10-12T07:45:26.320Z,8.57
2016-10-12T07:46:26.487Z,8.6
2016-10-12T07:47:28.485Z,8.68
2016-10-12T07:48:30.265Z,8.61
2016-10-12T07:49:26.315Z,8.54
2016-10-12T07:50:26.372Z,8.6
2016-10-12T07:51:26.392Z,8.5
2016-10-12T07:52:26.441Z,8.52
2016-10-12T07:53:26.267Z,8.6
2016-10-12T07:54:26.446Z,8.64
2016-10-12T07:55:26.393Z,8.64
2016-10-12T07:56:26.361Z,8.62
2016-10-12T07:57:26.430Z,8.67
2016-10-12T07:58:26.476Z,8.65
2016-10-12T07:59:26.373Z,8.74
2016-10-12T08:00:26.385Z,8.67
2016-10-12T08:01:26.450Z,8.62
2016-10-12T08:02:28.047Z,8.64
2016-10-12T08:03:26.408Z,8.65
2016-10-12T08:04:26.427Z,8.6
2016-10-12T08:05:26.398Z,8.62
2016-10-12T08:06:26.325Z,8.61
2016-10-12T08:07:26.651Z,8.65
2016-10-12T08:08:26.510Z,8.67
2016-10-12T08:09:26.519Z,8.62
2016-10-12T08:10:26.445Z,8.67
2016-10-12T08:11:26.321Z,8.71
2016-10-12T08:12:26.398Z,8.64
2016-10-12T08:13:26.464Z,8.64
2016-10-12T08:14:26.478Z,8.65
2016-10-12T08:15:26.478Z,8.64
2016-10-12T08:16:26.435Z,8.65
2016-10-12T08:17:26.385Z,8.62
2016-10-12T08:18:26.438Z,8.67
2016-10-12T08:19:26.474Z,8.72
2016-10-12T08:20:26.419Z,8.72
2016-10-12T08:21:26.523Z,8.76
2016-10-12T08:22:26.385Z,8.83
2016-10-12T08:23:26.509Z,8.92
2016-10-12T08:24:26.537Z,8.92
2016-10-12T08:25:26.484Z,9.05
2016-10-12T08:26:26.441Z,9.12
2016-10-12T08:27:26.389Z,9.17
2016-10-12T08:28:26.413Z,9.17
2016-10-12T08:29:26.553Z,9.24
2016-10-12T08:30:26.438Z,9.27
2016-10-12T08:31:26.550Z,9.3
2016-10-12T08:32:26.400Z,9.27
2016-10-12T08:33:26.529Z,9.35
2016-10-12T08:34:26.495Z,9.11
2016-10-12T08:35:26.692Z,9.21
2016-10-12T08:36:26.498Z,9.5
2016-10-12T08:37:26.415Z,9.55
2016-10-12T08:38:26.497Z,9.71
2016-10-12T08:39:26.402Z,9.6
2016-10-12T08:40:26.562Z,9.67
2016-10-12T08:41:26.495Z,9.7
2016-10-12T08:42:26.585Z,9.48
2016-10-12T08:43:26.560Z,9.48
2016-10-12T08:44:26.476Z,9.48
2016-10-12T08:45:26.539Z,9.52
2016-10-12T08:46:26.455Z,9.44
2016-10-12T08:47:26.536Z,9.44
2016-10-12T08:48:26.598Z,9.39
2016-10-12T08:49:26.610Z,9.32
2016-10-12T08:50:26.515Z,9.27
2016-10-12T08:51:26.572Z,9.16
2016-10-12T08:52:26.502Z,9.26
2016-10-12T08:53:26.743Z,9.27
2016-10-12T08:54:26.494Z,9.26
2016-10-12T08:55:26.592Z,9.19
2016-10-12T08:56:27.557Z,9.23
2016-10-12T08:57:26.671Z,9.11
2016-10-12T08:58:26.614Z,9.16
2016-10-12T08:59:26.661Z,9.11
2016-10-12T09:00:26.533Z,9.16
2016-10-12T09:01:26.768Z,9.03
2016-10-12T09:02:26.540Z,9.05
2016-10-12T09:03:26.489Z,8.98
2016-10-12T09:04:26.680Z,9.01
2016-10-12T09:05:26.614Z,9.01
2016-10-12T09:06:26.780Z,8.89
2016-10-12T09:07:26.576Z,8.94
2016-10-12T09:08:26.645Z,9.05
2016-10-12T09:09:26.541Z,9.03
2016-10-12T09:10:26.620Z,9.08
2016-10-12T09:11:26.598Z,9.11
2016-10-12T09:12:27.602Z,9.03
2016-10-12T09:13:26.639Z,9.21
2016-10-12T09:14:26.628Z,9.2
2016-10-12T09:15:26.632Z,9.14
2016-10-12T09:16:27.392Z,9.17
2016-10-12T09:17:26.546Z,9.14
2016-10-12T09:18:26.599Z,9.12
2016-10-12T09:19:26.694Z,8.94
2016-10-12T09:20:26.669Z,9.08
2016-10-12T09:21:26.654Z,9.01
2016-10-12T09:22:26.565Z,8.9
2016-10-12T09:23:27.243Z,8.92
2016-10-12T09:24:26.628Z,8.89
2016-10-12T09:25:26.773Z,9
2016-10-12T09:26:26.647Z,8.92
2016-10-12T09:27:26.705Z,8.76
2016-10-12T09:28:26.599Z,8.86
2016-10-12T09:29:26.719Z,8.74
2016-10-12T09:30:26.678Z,8.85
2016-10-12T09:31:26.591Z,8.87
2016-10-12T09:32:26.855Z,8.94
2016-10-12T09:33:28.237Z,8.89
2016-10-12T09:34:26.701Z,8.95
2016-10-12T09:35:26.601Z,8.97
2016-10-12T09:36:26.706Z,9.01
2016-10-12T09:37:26.774Z,9.05
2016-10-12T09:38:26.722Z,9.2
2016-10-12T09:39:26.694Z,9.09
2016-10-12T09:40:26.584Z,9.11
2016-10-12T09:41:26.673Z,9.09
2016-10-12T09:42:26.618Z,8.92
2016-10-12T09:43:29.534Z,9.04
2016-10-12T09:44:26.714Z,9.11
2016-10-12T09:45:26.749Z,9.05
2016-10-12T09:46:26.812Z,9.03
2016-10-12T09:47:26.600Z,9.04
2016-10-12T09:48:27.130Z,9.03
2016-10-12T09:49:26.736Z,9
2016-10-12T09:50:26.679Z,9.09
2016-10-12T09:51:27.416Z,9
2016-10-12T09:52:26.686Z,9.08
2016-10-12T09:53:26.718Z,9.08
2016-10-12T09:54:26.690Z,9.12
2016-10-12T09:55:26.611Z,9.2
2016-10-12T09:56:26.649Z,9.2
2016-10-12T09:57:26.776Z,9.24
2016-10-12T09:58:27.159Z,9.26
2016-10-12T09:59:26.711Z,9.17
2016-10-12T10:00:26.676Z,9.12
2016-10-12T10:01:26.802Z,9.26
2016-10-12T10:02:26.653Z,9.38
2016-10-12T10:03:26.717Z,9.38
2016-10-12T10:04:27.015Z,9.3
2016-10-12T10:05:26.734Z,9.42
2016-10-12T10:06:26.781Z,9.5
2016-10-12T10:07:28.906Z,9.59
2016-10-12T10:08:26.839Z,9.55
2016-10-12T10:09:26.894Z,9.62
2016-10-12T10:10:26.815Z,9.63
2016-10-12T10:11:26.980Z,9.5
2016-10-12T10:12:26.775Z,9.48
2016-10-12T10:13:26.889Z,9.56
2016-10-12T10:14:26.850Z,9.53
2016-10-12T10:15:27.056Z,9.47
2016-10-12T10:16:26.851Z,9.55
2016-10-12T10:17:26.792Z,9.48
2016-10-12T10:18:26.783Z,9.5
2016-10-12T10:19:26.819Z,9.42
2016-10-12T10:20:27.006Z,9.53
2016-10-12T10:21:26.922Z,9.55
2016-10-12T10:22:26.818Z,9.56
2016-10-12T10:23:26.760Z,9.52
2016-10-12T10:24:26.787Z,9.59
2016-10-12T10:25:26.664Z,9.53
2016-10-12T10:26:26.687Z,9.59
2016-10-12T10:27:26.826Z,9.56
2016-10-12T10:28:27.008Z,9.62
2016-10-12T10:29:41.286Z,9.67
2016-10-12T10:30:27.302Z,9.75
2016-10-12T10:31:26.793Z,9.63
2016-10-12T10:32:26.787Z,9.59
2016-10-12T10:33:26.797Z,9.55
2016-10-12T10:34:26.866Z,9.57
2016-10-12T10:35:26.774Z,9.59
2016-10-12T10:36:26.981Z,9.6
2016-10-12T10:37:26.862Z,9.59
2016-10-12T10:38:26.780Z,9.64
2016-10-12T10:39:26.894Z,9.72
2016-10-12T10:40:26.863Z,9.75
2016-10-12T10:41:26.914Z,9.85
2016-10-12T10:42:26.799Z,9.89
2016-10-12T10:43:26.869Z,9.96
2016-10-12T10:44:26.878Z,9.85
2016-10-12T10:45:26.917Z,10.05
2016-10-12T10:46:26.886Z,10.03
2016-10-12T10:47:27.201Z,10.05
2016-10-12T10:48:26.856Z,9.99
2016-10-12T10:49:26.908Z,9.95
2016-10-12T10:50:26.784Z,9.9
2016-10-12T10:51:27.982Z,9.9
2016-10-12T10:52:26.905Z,9.95
2016-10-12T10:53:26.982Z,9.92
2016-10-12T10:54:27.017Z,9.96
2016-10-12T10:55:26.783Z,9.92
2016-10-12T10:56:26.926Z,9.95
2016-10-12T10:57:27.023Z,9.98
2016-10-12T10:58:28.148Z,9.95
2016-10-12T10:59:26.960Z,9.9
2016-10-12T11:00:26.836Z,9.96
2016-10-12T11:01:26.883Z,9.89
2016-10-12T11:02:27.243Z,9.93
2016-10-12T11:03:27.005Z,9.9
2016-10-12T11:04:27.023Z,9.75
2016-10-12T11:05:26.930Z,9.81
2016-10-12T11:06:26.821Z,9.8
2016-10-12T11:07:27.056Z,9.67
2016-10-12T11:08:26.866Z,9.78
2016-10-12T11:09:26.994Z,9.78
2016-10-12T11:10:26.915Z,9.88
2016-10-12T11:11:26.929Z,9.77
2016-10-12T11:12:27.016Z,9.77
2016-10-12T11:13:27.070Z,9.81
2016-10-12T11:14:26.997Z,9.82
2016-10-12T11:15:26.942Z,9.74
2016-10-12T11:16:26.812Z,9.7
2016-10-12T11:17:27.064Z,9.74
2016-10-12T11:18:27.004Z,9.8
2016-10-12T11:19:26.903Z,9.77
2016-10-12T11:20:26.998Z,9.78
2016-10-12T11:21:26.944Z,9.8
2016-10-12T11:22:26.961Z,9.81
2016-10-12T11:23:26.980Z,9.8
2016-10-12T11:24:27.022Z,9.8
2016-10-12T11:25:27.093Z,9.74
2016-10-12T11:26:27.041Z,9.67
2016-10-12T11:27:26.885Z,9.8
2016-10-12T11:28:27.074Z,9.75
2016-10-12T11:29:27.078Z,9.67
2016-10-12T11:30:26.951Z,9.71
2016-10-12T11:31:33.634Z,9.81
2016-10-12T11:32:27.097Z,9.89
2016-10-12T11:33:27.234Z,9.95
2016-10-12T11:34:27.317Z,10.25
2016-10-12T11:35:27.036Z,10.08
2016-10-12T11:36:26.983Z,10.15
2016-10-12T11:37:27.063Z,10.17
2016-10-12T11:38:27.099Z,10.31
2016-10-12T11:39:27.151Z,10.2
2016-10-12T11:40:27.005Z,10.26
2016-10-12T11:41:27.019Z,10.32
2016-10-12T11:42:27.110Z,10.35
2016-10-12T11:43:27.027Z,10.51
2016-10-12T11:44:27.030Z,10.63
2016-10-12T11:45:27.299Z,10.65
2016-10-12T11:46:27.741Z,10.28
2016-10-12T11:47:27.078Z,10.36
2016-10-12T11:48:26.980Z,10.65
2016-10-12T11:49:27.678Z,10.47
2016-10-12T11:50:27.363Z,10.58
2016-10-12T11:51:27.083Z,10.7
2016-10-12T11:52:27.042Z,10.94
2016-10-12T11:53:27.265Z,11.09
2016-10-12T11:54:27.097Z,11.45
2016-10-12T11:55:27.132Z,11.59
2016-10-12T11:56:27.080Z,11.56
2016-10-12T11:57:27.058Z,11.52
2016-10-12T11:58:27.027Z,11.59
2016-10-12T11:59:26.951Z,11.7
2016-10-12T12:00:27.088Z,11.68
2016-10-12T12:01:27.134Z,11.67
2016-10-12T12:02:27.002Z,11.78
2016-10-12T12:03:27.064Z,11.53
2016-10-12T12:04:27.043Z,11.41
2016-10-12T12:05:27.272Z,11.27
2016-10-12T12:06:27.199Z,11.12
2016-10-12T12:07:27.197Z,11.06
2016-10-12T12:08:27.125Z,11.03
2016-10-12T12:09:27.153Z,11.3
2016-10-12T12:10:27.096Z,10.95
2016-10-12T12:11:27.165Z,10.9
2016-10-12T12:12:27.077Z,10.83
2016-10-12T12:13:27.170Z,10.75
2016-10-12T12:14:27.083Z,10.84
2016-10-12T12:15:27.093Z,10.69
2016-10-12T12:16:27.057Z,10.67
2016-10-12T12:17:27.425Z,10.59
2016-10-12T12:18:27.097Z,10.65
2016-10-12T12:19:27.127Z,10.75
2016-10-12T12:20:27.087Z,10.76
2016-10-12T12:21:27.256Z,10.66
2016-10-12T12:22:27.552Z,10.67
2016-10-12T12:23:27.194Z,10.76
2016-10-12T12:24:27.066Z,10.77
2016-10-12T12:25:27.288Z,10.79
2016-10-12T12:26:27.116Z,10.79
2016-10-12T12:27:27.207Z,10.76
2016-10-12T12:28:27.277Z,10.67
2016-10-12T12:29:27.139Z,10.65
2016-10-12T12:30:27.087Z,10.57
2016-10-12T12:31:27.123Z,10.42
2016-10-12T12:32:27.264Z,10.54
2016-10-12T12:33:27.094Z,10.73
2016-10-12T12:34:27.127Z,10.83
2016-10-12T12:35:27.144Z,10.9
2016-10-12T12:36:27.323Z,10.49
2016-10-12T12:37:27.163Z,10.32
2016-10-12T12:38:27.494Z,10.49
2016-10-12T12:39:27.124Z,10.63
2016-10-12T12:40:27.163Z,10.7
2016-10-12T12:41:27.312Z,10.65
2016-10-12T12:42:27.757Z,10.57
2016-10-12T12:43:27.200Z,10.36
2016-10-12T12:44:27.159Z,10.35
2016-10-12T12:45:27.323Z,10.36
2016-10-12T12:46:27.181Z,10.32
2016-10-12T12:47:27.246Z,10.31
2016-10-12T12:48:27.207Z,10.23
2016-10-12T12:49:27.559Z,10.28
2016-10-12T12:50:27.283Z,10.28
2016-10-12T12:51:27.204Z,10.28
2016-10-12T12:52:27.194Z,10.33
2016-10-12T12:53:27.191Z,10.32
2016-10-12T12:54:27.183Z,10.26
2016-10-12T12:55:27.373Z,10.23
2016-10-12T12:56:27.371Z,10.23
2016-10-12T12:57:27.266Z,10.25
2016-10-12T12:58:27.228Z,10.1
2016-10-12T12:59:27.182Z,10.08
2016-10-12T13:00:27.434Z,10.05
2016-10-12T13:01:27.198Z,9.95
2016-10-12T13:02:27.318Z,9.98
2016-10-12T13:03:27.289Z,10.08
2016-10-12T13:04:27.248Z,9.93
2016-10-12T13:05:27.262Z,9.93
2016-10-12T13:06:27.408Z,9.96
2016-10-12T13:07:27.177Z,9.9
2016-10-12T13:08:27.217Z,10
2016-10-12T13:09:27.448Z,9.95
2016-10-12T13:10:27.462Z,9.93
2016-10-12T13:11:27.353Z,10
2016-10-12T13:12:27.263Z,9.95
2016-10-12T13:13:27.441Z,9.85
2016-10-12T13:14:27.461Z,9.89
2016-10-12T13:15:27.917Z,9.8
2016-10-12T13:16:27.262Z,9.89
2016-10-12T13:17:27.270Z,9.81
2016-10-12T13:18:27.302Z,9.95